DATA ZE ZPRÁV METAR

Zprávy METAR jsou pravidelné letecké meteorologické zprávy o podmínkách na daném letišti, zejména o stavu oblačnosti, viditelnosti a průběhu počasí v poslední hodině. Na letištích s pravidelným provozem jsou vydávány každých 30 minut, jinak zpravidla jednou za hodinu. Ne každé letiště (zejména komerční) poskytuje zprávy po celých 24 hodin denně. Více o zprávách METAR najdete na této stránce.

Zprávy METAR z letišť v blízkém okolí

LKPR - Praha Ruzyně, Česká republika
Směr a vzdálenost od této stanice: ZJZ 98km
Aktualizováno: 29.06.2017 02:00
Skoro zataženo
Skoro zataženo
 Vítr ze směru proměnlivý
Vítr: proměnlivý 4 km/h
Teplota: 18°C
Rosný bod: 16°C
Vlhkost: 88%
Tlak vzduchu: 996 hPa
Oblačnost: Skoro zataženo
Dohlednost: 10 km
Detaily oblačnosti: Skoro zataženo 305 m
2017/06/29 00:00 LKPR 290000Z VRB02KT 9999 BKN010 18/16 Q0996 TEMPO TSRA SCT020CB
LKTB - Brno Tuřany, Česká republika
Směr a vzdálenost od této stanice: JJV 174km
Aktualizováno: 29.06.2017 02:00
Jasno, Jasná obloha
Jasno, Jasná obloha
 Vítr ze směru JV
Vítr: JV 13 km/h
Teplota: 21°C
Rosný bod: 15°C
Vlhkost: 69%
Tlak vzduchu: 997 hPa
Stav počasí: Jasno
Oblačnost: Jasná obloha
Dohlednost: více než 10 km
2017/06/29 00:00 LKTB 290000Z 13007KT CAVOK 21/15 Q0997 NOSIG
 
LKKV - Karlovy Vary, Česká republika
Směr a vzdálenost od této stanice: Z 187km
Aktualizováno: 29.06.2017 02:00
Jasno, Jasná obloha
Jasno, Jasná obloha
 Vítr ze směru VJV
Vítr: VJV 4 km/h
Teplota: 14°C
Rosný bod: 12°C
Vlhkost: 88%
Tlak vzduchu: 997 hPa
Stav počasí: Jasno
Oblačnost: Jasná obloha
Dohlednost: více než 10 km
2017/06/29 00:00 LKKV 290000Z 12002KT CAVOK 14/12 Q0997
LKMT - Ostrava Mošnov, Česká republika
Směr a vzdálenost od této stanice: VJV 208km
Aktualizováno: 29.06.2017 02:00
Jasno, Jasná obloha
Jasno, Jasná obloha
 Vítr ze směru JJV
Vítr: JJV 11 km/h
Teplota: 24°C
Rosný bod: 15°C
Vlhkost: 57%
Tlak vzduchu: 998 hPa
Stav počasí: Jasno
Oblačnost: Jasná obloha
Dohlednost: více než 10 km
2017/06/29 00:00 LKMT 290000Z 16006KT 130V190 CAVOK 24/15 Q0998 NOSIG
 
LKPD - Pardubice, Česká republika
Směr a vzdálenost od této stanice: JJV 56km
Aktualizováno: 29.06.2017 02:00
Jasno, Jasná obloha
Jasno, Jasná obloha
 Vítr ze směru VSV
Vítr: VSV 9 km/h
Teplota: 19°C
Rosný bod: 19°C
Vlhkost: 100%
Tlak vzduchu: 995 hPa
Stav počasí: Jasno
Oblačnost: Jasná obloha
Dohlednost: více než 10 km
2017/06/29 00:00 LKPD 290000Z 06005KT CAVOK 19/19 Q0995 RMK BLU
LKKB - Praha Kbely, Česká republika
Směr a vzdálenost od této stanice: ZJZ 81km
Aktualizováno: 29.06.2017 02:00
Skoro zataženo
Skoro zataženo
 Vítr ze směru proměnlivý
Vítr: proměnlivý 2 km/h
Teplota: 19°C
Rosný bod: 17°C
Vlhkost: 88%
Tlak vzduchu: 996 hPa
Oblačnost: Skoro zataženo
Dohlednost: 10 km
Detaily oblačnosti: Skoro jasno 732 m
Polojasno 1433 m
Skoro zataženo 3353 m
2017/06/29 00:00 LKKB 290000Z VRB01KT 9999 FEW024CB SCT047 BKN110 19/17 Q0996
 
LKCV - Čáslav, Česká republika
Směr a vzdálenost od této stanice: J 63km
Aktualizováno: 29.06.2017 02:00
Jasno, Jasná obloha
Jasno, Jasná obloha
 Vítr ze směru proměnlivý
Vítr: proměnlivý 4 km/h
Teplota: 18°C
Rosný bod: 18°C
Vlhkost: 100%
Tlak vzduchu: 995 hPa
Stav počasí: Jasno
Oblačnost: Jasná obloha
Dohlednost: více než 10 km
2017/06/29 00:00 LKCV 290000Z VRB02KT CAVOK 18/18 Q0995 NOSIG RMK BLACK
LKNA - Náměšť n. Osl., Česká republika
Směr a vzdálenost od této stanice: JJV 154km
Aktualizováno: 29.06.2017 02:00
Jasno, Jasná obloha
Jasno, Jasná obloha
 Vítr ze směru JJV
Vítr: JJV 15 km/h
Teplota: 19°C
Rosný bod: 13°C
Vlhkost: 68%
Tlak vzduchu: 997 hPa
Stav počasí: Jasno
Oblačnost: Jasná obloha
Dohlednost: více než 10 km
2017/06/29 00:00 LKNA 290000Z 15008KT CAVOK 19/13 Q0997 RMK BLU
 
LKLN - Plzeň Líně, Česká republika
Směr a vzdálenost od této stanice: ZJZ 184km
Aktualizováno: 29.06.2017 02:00
Zataženo
Zataženo
 Vítr ze směru SSV
Vítr: SSV 6 km/h
Teplota: 18°C
Rosný bod: 17°C
Vlhkost: 94%
Tlak vzduchu: 996 hPa
Oblačnost: Zataženo
Dohlednost: 10 km
Detaily oblačnosti: Skoro zataženo 2347 m
Zataženo 3048 m
2017/06/29 00:00 LKLN 290000Z AUTO 02003KT 350V050 9999 BKN077 OVC100 18/17 Q0996
EDDC - Dresden Klotzsch, Německo
Směr a vzdálenost od této stanice: ZSZ 142km
Aktualizováno: 29.06.2017 02:20
Mlha, Skoro zataženo
Mlha, Skoro zataženo
 Vítr ze směru ZSZ
Vítr: ZSZ 4 km/h
Teplota: 16°C
Rosný bod: 16°C
Vlhkost: 100%
Tlak vzduchu: 996 hPa
Stav počasí: Mlha
Oblačnost: Skoro zataženo
Dohlednost: 0 km
Detaily oblačnosti: Skoro zataženo 30 m
2017/06/29 00:20 EDDC 290020Z 29002KT 0150 R22/0350V0500N FG BKN001 16/16 Q0996